Time;durP1;ratioP1;P1;durP2;ratioP2;P2;SDS_P1;SDS_P2;PMS_P1;PMS_P2;Temp;Humidity;BMP_temperature;BMP_pressure;BME280_temperature;BME280_humidity;BME280_pressure;Samples;Min_cycle;Max_cycle;Signal;HPM_P1;HPM_P2
2023/04/22 00:00:13;;;;;;;;;;;;;;;15.41;100.00;97427.09;5031258;28;19937;-77
2023/04/22 00:02:39;;;;;;;;;;;;;;;15.41;100.00;97426.34;5027837;28;19925;-77
2023/04/22 00:05:06;;;;;;;;;;;;;;;15.27;100.00;97430.94;5004175;28;19925;-76
2023/04/22 00:07:33;;;;;;;;;;;;;;;14.93;100.00;97426.06;5009013;28;20345;-78
2023/04/22 00:09:59;;;;;;;;;;;;;;;14.90;100.00;97426.69;5011006;28;19929;-76
2023/04/22 00:12:27;;;;;;;;;;;;;;;15.02;100.00;97425.06;5021646;28;19929;-76
2023/04/22 00:14:53;;;;;;;;;;;;;;;15.11;100.00;97434.00;5019167;28;20636;-76
2023/04/22 00:17:20;;;;;;;;;;;;;;;15.10;100.00;97432.38;5017072;28;19929;-76
2023/04/22 00:19:46;;;;;;;;;;;;;;;15.17;100.00;97431.19;5018757;28;19936;-77
2023/04/22 00:22:12;;;;;;;;;;;;;;;15.24;100.00;97426.97;5019806;28;20008;-77
2023/04/22 00:24:39;;;;;;;;;;;;;;;15.27;100.00;97429.06;5021365;28;19935;-77
2023/04/22 00:27:06;;;;;;;;;;;;;;;15.27;100.00;97426.38;5023470;28;20411;-78
2023/04/22 00:29:34;;;;;;;;;;;;;;;15.28;100.00;97424.47;5019082;28;19968;-76
2023/04/22 00:32:00;;;;;;;;;;;;;;;15.29;100.00;97428.78;5026690;28;19925;-77
2023/04/22 00:34:27;;;;;;;;;;;;;;;15.26;100.00;97432.03;5026741;28;20452;-77
2023/04/22 00:36:53;;;;;;;;;;;;;;;15.22;100.00;97433.78;5015029;28;20045;-77
2023/04/22 00:39:20;;;;;;;;;;;;;;;15.21;100.00;97426.78;5032256;28;20013;-76
2023/04/22 00:41:46;;;;;;;;;;;;;;;15.20;100.00;97428.69;5036252;28;19960;-79
2023/04/22 00:44:12;;;;;;;;;;;;;;;15.21;100.00;97430.28;5033747;28;20421;-77
2023/04/22 00:46:40;;;;;;;;;;;;;;;15.16;100.00;97437.69;5027631;28;19933;-78
2023/04/22 00:49:07;;;;;;;;;;;;;;;15.17;100.00;97436.56;5020385;28;20005;-79
2023/04/22 00:51:33;;;;;;;;;;;;;;;15.17;100.00;97437.34;5028347;28;19932;-80
2023/04/22 00:54:01;;;;;;;;;;;;;;;14.97;100.00;97443.19;5027961;28;19924;-79
2023/04/22 00:56:28;;;;;;;;;;;;;;;14.89;100.00;97446.59;5014739;28;19929;-79
2023/04/22 00:58:55;;;;;;;;;;;;;;;14.91;100.00;97447.91;5006519;28;19964;-79
2023/04/22 01:01:21;;;;;;;;;;;;;;;14.94;100.00;97447.28;5009393;28;19925;-78
2023/04/22 01:03:49;;;;;;;;;;;;;;;14.96;100.00;97445.09;5026234;28;20364;-79
2023/04/22 01:06:16;;;;;;;;;;;;;;;15.01;100.00;97450.34;5026719;28;19932;-79
2023/04/22 01:08:43;;;;;;;;;;;;;;;15.00;100.00;97454.16;5012717;28;19931;-79
2023/04/22 01:11:09;;;;;;;;;;;;;;;14.92;100.00;97446.78;5027529;28;19971;-79
2023/04/22 01:13:37;;;;;;;;;;;;;;;15.00;100.00;97443.41;5024968;28;19947;-79
2023/04/22 01:16:07;;;;;;;;;;;;;;;15.00;100.00;97453.34;5032627;28;19926;-79
2023/04/22 01:18:34;;;;;;;;;;;;;;;14.91;100.00;97458.66;5026698;28;19947;-80
2023/04/22 01:21:02;;;;;;;;;;;;;;;14.81;100.00;97455.38;5032856;28;19925;-79
2023/04/22 01:23:30;;;;;;;;;;;;;;;14.82;100.00;97447.03;5028790;28;19933;-80
2023/04/22 01:25:57;;;;;;;;;;;;;;;14.89;100.00;97460.03;5024883;28;20631;-79
2023/04/22 01:28:24;;;;;;;;;;;;;;;14.87;100.00;97438.03;5013944;28;19929;-79
2023/04/22 01:30:51;;;;;;;;;;;;;;;14.87;100.00;97457.66;5025478;28;19929;-79
2023/04/22 01:33:17;;;;;;;;;;;;;;;14.78;100.00;97456.78;5016969;28;20308;-78
2023/04/22 01:35:44;;;;;;;;;;;;;;;14.47;100.00;97455.78;5025614;28;19925;-79
2023/04/22 01:38:11;;;;;;;;;;;;;;;13.83;100.00;97452.09;5042983;28;19931;-79
2023/04/22 01:40:39;;;;;;;;;;;;;;;13.63;100.00;97457.81;5039000;28;20395;-78
2023/04/22 01:43:06;;;;;;;;;;;;;;;13.72;100.00;97456.03;5033996;28;19932;-78
2023/04/22 01:45:32;;;;;;;;;;;;;;;13.61;100.00;97461.88;5017954;28;19933;-78
2023/04/22 01:47:59;;;;;;;;;;;;;;;13.69;100.00;97448.56;5012326;28;19941;-80
2023/04/22 01:50:25;;;;;;;;;;;;;;;13.96;100.00;97456.69;5006761;28;19925;-80
2023/04/22 01:52:51;;;;;;;;;;;;;;;14.08;100.00;97458.91;5005478;28;19925;-78
2023/04/22 01:55:18;;;;;;;;;;;;;;;14.20;100.00;97455.75;5033936;28;19925;-79
2023/04/22 01:57:46;;;;;;;;;;;;;;;14.32;100.00;97453.38;5019098;28;20446;-80
2023/04/22 02:00:12;;;;;;;;;;;;;;;14.37;100.00;97453.28;5018300;28;19969;-80
2023/04/22 02:02:39;;;;;;;;;;;;;;;14.06;100.00;97450.34;5014865;28;19964;-79
2023/04/22 02:05:06;;;;;;;;;;;;;;;14.15;100.00;97453.94;5018118;28;19929;-80
2023/04/22 02:07:32;;;;;;;;;;;;;;;14.31;100.00;97462.50;5018657;28;19929;-80
2023/04/22 02:10:00;;;;;;;;;;;;;;;14.38;100.00;97461.06;5023830;28;19925;-79
2023/04/22 02:12:26;;;;;;;;;;;;;;;14.28;100.00;97455.06;5020549;28;19959;-79
2023/04/22 02:14:54;;;;;;;;;;;;;;;14.30;100.00;97466.28;5031993;28;20028;-78
2023/04/22 02:17:21;;;;;;;;;;;;;;;14.37;100.00;97458.66;5026304;28;20162;-79
2023/04/22 02:19:47;;;;;;;;;;;;;;;14.30;100.00;97459.03;5021094;28;19929;-80
2023/04/22 02:22:13;;;;;;;;;;;;;;;14.29;100.00;97448.59;5026473;28;20312;-79
2023/04/22 02:24:40;;;;;;;;;;;;;;;14.36;100.00;97454.41;5015086;28;19936;-79
2023/04/22 02:27:07;;;;;;;;;;;;;;;14.43;100.00;97449.41;5026162;28;19961;-79
2023/04/22 02:29:34;;;;;;;;;;;;;;;14.49;100.00;97445.53;5011260;28;19925;-79
2023/04/22 02:32:02;;;;;;;;;;;;;;;14.53;100.00;97446.53;5027005;28;19936;-79
2023/04/22 02:34:28;;;;;;;;;;;;;;;14.51;100.00;97441.44;5029235;28;19929;-78
2023/04/22 02:36:54;;;;;;;;;;;;;;;14.52;100.00;97450.31;5025821;28;19925;-78
2023/04/22 02:39:21;;;;;;;;;;;;;;;14.19;100.00;97438.84;5028634;28;19947;-78
2023/04/22 02:41:47;;;;;;;;;;;;;;;14.17;100.00;97440.22;5019131;28;19971;-78
2023/04/22 02:44:13;;;;;;;;;;;;;;;14.28;100.00;97441.63;5025284;28;20011;-80
2023/04/22 02:46:40;;;;;;;;;;;;;;;14.32;100.00;97443.44;5025008;28;19980;-80
2023/04/22 02:49:07;;;;;;;;;;;;;;;14.41;100.00;97452.41;5022393;28;20436;-80
2023/04/22 02:51:34;;;;;;;;;;;;;;;14.37;100.00;97448.72;5010655;28;20013;-79
2023/04/22 02:54:00;;;;;;;;;;;;;;;14.34;100.00;97451.19;4995281;28;20025;-80
2023/04/22 02:56:27;;;;;;;;;;;;;;;14.31;100.00;97447.19;5013577;28;19940;-79
2023/04/22 02:58:53;;;;;;;;;;;;;;;14.32;100.00;97448.81;5014947;28;20760;-79
2023/04/22 03:01:19;;;;;;;;;;;;;;;14.34;100.00;97445.84;5020236;28;20008;-79
2023/04/22 03:03:46;;;;;;;;;;;;;;;14.31;100.00;97444.50;5027099;28;19925;-79
2023/04/22 03:06:13;;;;;;;;;;;;;;;14.30;100.00;97445.59;5020665;28;19925;-79
2023/04/22 03:08:40;;;;;;;;;;;;;;;14.28;100.00;97444.31;5014590;28;19985;-79
2023/04/22 03:11:06;;;;;;;;;;;;;;;14.27;100.00;97451.56;5011678;28;19929;-79
2023/04/22 03:13:32;;;;;;;;;;;;;;;14.22;100.00;97445.50;5005630;28;19929;-79
2023/04/22 03:15:59;;;;;;;;;;;;;;;13.87;100.00;97442.34;5020213;28;20012;-79
2023/04/22 03:18:25;;;;;;;;;;;;;;;13.79;100.00;97451.09;5006882;28;19930;-79
2023/04/22 03:20:51;;;;;;;;;;;;;;;13.88;100.00;97443.97;5002522;28;19925;-81
2023/04/22 03:23:19;;;;;;;;;;;;;;;13.94;100.00;97448.16;5021959;28;19947;-79
2023/04/22 03:25:45;;;;;;;;;;;;;;;13.97;100.00;97439.50;5020641;28;19925;-80
2023/04/22 03:28:12;;;;;;;;;;;;;;;13.83;100.00;97446.72;5024657;28;19933;-80
2023/04/22 03:30:38;;;;;;;;;;;;;;;13.89;100.00;97442.06;5022077;28;19929;-79
2023/04/22 03:33:05;;;;;;;;;;;;;;;13.86;100.00;97437.31;5027495;28;20016;-79
2023/04/22 03:35:31;;;;;;;;;;;;;;;13.93;100.00;97443.06;5026703;28;20134;-79
2023/04/22 03:37:58;;;;;;;;;;;;;;;13.84;100.00;97442.16;5021507;28;19925;-79
2023/04/22 03:40:25;;;;;;;;;;;;;;;13.66;100.00;97434.94;5017212;28;20065;-79
2023/04/22 03:42:52;;;;;;;;;;;;;;;13.13;100.00;97445.16;5007256;28;19936;-80
2023/04/22 03:45:18;;;;;;;;;;;;;;;13.04;100.00;97439.63;5017924;28;19925;-80
2023/04/22 03:47:44;;;;;;;;;;;;;;;12.81;100.00;97445.84;5019809;28;19925;-80
2023/04/22 03:50:11;;;;;;;;;;;;;;;12.62;100.00;97451.19;5019794;28;19929;-81
2023/04/22 03:52:37;;;;;;;;;;;;;;;12.86;100.00;97451.13;5016943;28;19929;-80
2023/04/22 03:55:04;;;;;;;;;;;;;;;13.14;100.00;97454.81;5021532;28;20035;-80
2023/04/22 03:57:31;;;;;;;;;;;;;;;13.35;100.00;97445.38;5022193;28;19951;-79
2023/04/22 03:59:57;;;;;;;;;;;;;;;13.50;100.00;97453.19;5014948;28;19929;-79
2023/04/22 04:02:24;;;;;;;;;;;;;;;13.65;100.00;97454.84;5026353;28;19925;-79
2023/04/22 04:04:50;;;;;;;;;;;;;;;13.72;100.00;97452.56;5021868;28;19936;-80
2023/04/22 04:07:17;;;;;;;;;;;;;;;13.79;100.00;97453.78;5027830;28;19932;-79
2023/04/22 04:09:43;;;;;;;;;;;;;;;13.73;100.00;97451.47;5017588;28;19936;-79
2023/04/22 04:12:09;;;;;;;;;;;;;;;13.65;100.00;97450.25;5017497;28;19970;-79
2023/04/22 04:14:37;;;;;;;;;;;;;;;13.63;100.00;97440.91;5026111;28;19925;-79
2023/04/22 04:17:04;;;;;;;;;;;;;;;13.65;100.00;97447.56;5019963;28;19936;-79
2023/04/22 04:19:30;;;;;;;;;;;;;;;13.69;100.00;97451.25;5023715;28;19925;-79
2023/04/22 04:21:56;;;;;;;;;;;;;;;13.70;100.00;97449.38;5005796;28;19931;-78
2023/04/22 04:24:23;;;;;;;;;;;;;;;13.68;100.00;97444.28;5003706;28;19925;-79
2023/04/22 04:26:50;;;;;;;;;;;;;;;13.66;100.00;97451.84;5004786;28;19925;-80
2023/04/22 04:29:19;;;;;;;;;;;;;;;13.66;100.00;97449.16;5014599;28;20239;-79
2023/04/22 04:31:46;;;;;;;;;;;;;;;13.66;100.00;97449.16;5017559;28;19929;-80
2023/04/22 04:34:13;;;;;;;;;;;;;;;13.65;100.00;97457.53;5004425;28;19925;-79
2023/04/22 04:36:39;;;;;;;;;;;;;;;13.64;100.00;97455.91;5005610;28;19925;-79
2023/04/22 04:39:05;;;;;;;;;;;;;;;13.63;100.00;97457.81;4997181;28;19926;-79
2023/04/22 04:41:32;;;;;;;;;;;;;;;13.61;100.00;97462.69;5012459;28;19925;-80
2023/04/22 04:43:59;;;;;;;;;;;;;;;13.67;100.00;97448.09;5022573;28;19969;-79
2023/04/22 04:46:28;;;;;;;;;;;;;;;13.64;100.00;97459.41;5017956;28;20504;-80
2023/04/22 04:48:56;;;;;;;;;;;;;;;13.63;100.00;97455.13;5015018;28;19925;-79
2023/04/22 04:51:22;;;;;;;;;;;;;;;13.65;100.00;97458.28;5006252;28;19933;-80
2023/04/22 04:53:49;;;;;;;;;;;;;;;13.65;100.00;97462.88;5012471;28;19929;-80
2023/04/22 04:56:15;;;;;;;;;;;;;;;13.64;100.00;97459.41;5008603;28;20023;-80
2023/04/22 04:58:42;;;;;;;;;;;;;;;13.65;100.00;97466.34;5019249;28;20710;-81
2023/04/22 05:01:08;;;;;;;;;;;;;;;13.61;100.00;97457.31;5014727;28;19935;-80
2023/04/22 05:03:34;;;;;;;;;;;;;;;13.62;100.00;97468.81;5026976;28;20016;-80
2023/04/22 05:06:02;;;;;;;;;;;;;;;13.61;100.00;97457.31;5023744;28;19948;-79
2023/04/22 05:08:29;;;;;;;;;;;;;;;13.62;100.00;97463.44;5025587;28;19929;-80
2023/04/22 05:10:55;;;;;;;;;;;;;;;13.57;100.00;97464.34;5009434;28;20027;-80
2023/04/22 05:13:22;;;;;;;;;;;;;;;13.47;100.00;97467.97;5017330;28;19929;-80
2023/04/22 05:15:48;;;;;;;;;;;;;;;13.19;100.00;97465.44;5025673;28;19925;-80
2023/04/22 05:18:14;;;;;;;;;;;;;;;13.20;100.00;97459.81;5013416;28;20255;-79
2023/04/22 05:20:41;;;;;;;;;;;;;;;13.08;100.00;97472.84;5019173;28;19979;-80
2023/04/22 05:23:09;;;;;;;;;;;;;;;12.85;100.00;97462.94;5022051;28;19931;-80
2023/04/22 05:25:35;;;;;;;;;;;;;;;12.98;100.00;97471.06;5020923;28;19929;-80
2023/04/22 05:28:01;;;;;;;;;;;;;;;13.12;100.00;97462.34;5013158;28;20272;-80
2023/04/22 05:30:28;;;;;;;;;;;;;;;13.05;100.00;97464.56;5004338;28;19929;-80
2023/04/22 05:32:54;;;;;;;;;;;;;;;12.87;100.00;97472.28;5023652;28;19925;-79
2023/04/22 05:35:20;;;;;;;;;;;;;;;12.65;100.00;97469.38;5016903;28;20292;-79
2023/04/22 05:37:47;;;;;;;;;;;;;;;12.82;100.00;97476.91;5024810;28;19929;-79
2023/04/22 05:40:14;;;;;;;;;;;;;;;12.65;100.00;97472.03;5014429;28;19925;-79
2023/04/22 05:42:41;;;;;;;;;;;;;;;12.44;100.00;97462.63;5033674;28;19960;-80
2023/04/22 05:45:08;;;;;;;;;;;;;;;12.63;100.00;97471.50;5018139;28;19925;-79
2023/04/22 05:47:34;;;;;;;;;;;;;;;12.78;100.00;97471.31;5014128;28;19931;-80
2023/04/22 05:50:00;;;;;;;;;;;;;;;13.06;100.00;97464.25;5013318;28;20059;-80
2023/04/22 05:52:27;;;;;;;;;;;;;;;13.09;100.00;97465.63;5003311;28;19940;-80
2023/04/22 05:54:53;;;;;;;;;;;;;;;13.44;100.00;97465.06;5013525;28;19925;-79
2023/04/22 05:57:21;;;;;;;;;;;;;;;13.57;100.00;97468.91;5017451;28;19936;-79
2023/04/22 05:59:47;;;;;;;;;;;;;;;13.83;100.00;97467.41;5029554;28;19935;-79
2023/04/22 06:02:14;;;;;;;;;;;;;;;14.03;100.00;97467.84;5005341;28;19999;-79
2023/04/22 06:04:40;;;;;;;;;;;;;;;14.20;100.00;97469.97;5010966;28;19949;-78
2023/04/22 06:07:07;;;;;;;;;;;;;;;14.43;100.00;97474.38;5011640;28;19926;-79
2023/04/22 06:09:33;;;;;;;;;;;;;;;14.65;100.00;97468.31;5020162;28;19931;-79
2023/04/22 06:12:00;;;;;;;;;;;;;;;14.72;100.00;97476.78;5021517;28;20459;-78
2023/04/22 06:14:28;;;;;;;;;;;;;;;14.86;100.00;97468.69;5018817;28;19929;-78
2023/04/22 06:16:56;;;;;;;;;;;;;;;14.91;100.00;97472.09;5017706;28;20367;-79
2023/04/22 06:19:22;;;;;;;;;;;;;;;15.06;100.00;97479.84;5012595;28;19964;-78
2023/04/22 06:21:48;;;;;;;;;;;;;;;15.25;100.00;97484.28;5016012;28;19925;-78
2023/04/22 06:24:15;;;;;;;;;;;;;;;15.40;100.00;97484.72;5036187;28;19935;-80
2023/04/22 06:26:41;;;;;;;;;;;;;;;15.55;100.00;97487.09;5015501;28;20146;-78
2023/04/22 06:29:07;;;;;;;;;;;;;;;15.70;100.00;97487.81;5024738;28;19931;-80
2023/04/22 06:31:35;;;;;;;;;;;;;;;15.69;100.00;97492.41;5023637;28;19929;-80
2023/04/22 06:34:01;;;;;;;;;;;;;;;15.83;100.00;97498.53;5008829;28;20016;-79
2023/04/22 06:36:28;;;;;;;;;;;;;;;15.94;100.00;97493.69;5014210;28;19926;-79
2023/04/22 06:38:54;;;;;;;;;;;;;;;15.72;100.00;97486.41;5022236;28;19932;-79
2023/04/22 06:41:21;;;;;;;;;;;;;;;15.83;100.00;97493.16;5011154;28;19925;-79
2023/04/22 06:43:49;;;;;;;;;;;;;;;15.97;100.00;97501.16;5020220;28;20420;-79
2023/04/22 06:46:15;;;;;;;;;;;;;;;16.02;100.00;97501.84;5014345;28;20099;-79
2023/04/22 06:48:43;;;;;;;;;;;;;;;15.23;100.00;97506.09;5011981;28;20031;-79
2023/04/22 06:51:09;;;;;;;;;;;;;;;14.88;100.00;97502.28;5008831;28;19925;-79
2023/04/22 06:53:36;;;;;;;;;;;;;;;14.67;100.00;97505.66;5011787;28;20029;-78
2023/04/22 06:56:02;;;;;;;;;;;;;;;14.40;100.00;97503.75;5020662;28;20019;-79
2023/04/22 06:58:28;;;;;;;;;;;;;;;14.25;100.00;97501.31;5019652;28;20031;-78
2023/04/22 07:00:55;;;;;;;;;;;;;;;14.02;100.00;97506.53;5023025;28;20035;-78
2023/04/22 07:03:21;;;;;;;;;;;;;;;14.15;100.00;97507.66;5022851;28;19928;-78
2023/04/22 07:05:49;;;;;;;;;;;;;;;14.28;100.00;97498.03;5007108;28;19925;-79
2023/04/22 07:08:15;;;;;;;;;;;;;;;14.15;100.00;97504.16;5013232;28;20297;-79
2023/04/22 07:10:42;;;;;;;;;;;;;;;14.06;100.00;97506.72;5021394;28;19948;-79
2023/04/22 07:13:08;;;;;;;;;;;;;;;13.99;100.00;97496.38;5016701;28;20290;-79
2023/04/22 07:15:34;;;;;;;;;;;;;;;14.24;100.00;97499.69;5018074;28;19940;-78
2023/04/22 07:18:01;;;;;;;;;;;;;;;14.21;100.00;97505.66;5020524;28;19925;-80
2023/04/22 07:20:27;;;;;;;;;;;;;;;14.12;100.00;97491.31;5013705;28;19935;-80
2023/04/22 07:22:55;;;;;;;;;;;;;;;14.11;100.00;97495.13;5009907;28;20492;-80
2023/04/22 07:25:21;;;;;;;;;;;;;;;14.23;100.00;97503.50;5008650;28;20019;-79
2023/04/22 07:27:47;;;;;;;;;;;;;;;14.26;100.00;97497.53;5001692;28;20308;-79
2023/04/22 07:30:14;;;;;;;;;;;;;;;14.37;100.00;97490.91;5026221;28;20650;-79
2023/04/22 07:32:40;;;;;;;;;;;;;;;14.33;100.00;97497.94;5009785;28;19937;-80
2023/04/22 07:35:07;;;;;;;;;;;;;;;14.05;100.00;97489.81;5006902;28;19929;-79
2023/04/22 07:37:33;;;;;;;;;;;;;;;14.26;100.00;97484.91;5014127;28;19960;-80
2023/04/22 07:40:01;;;;;;;;;;;;;;;14.36;100.00;97483.97;5017813;28;19925;-80
2023/04/22 07:42:27;;;;;;;;;;;;;;;14.50;100.00;97487.44;5026326;28;19959;-80
2023/04/22 07:44:54;;;;;;;;;;;;;;;14.36;100.00;97475.91;5009127;28;19936;-79
2023/04/22 07:47:20;;;;;;;;;;;;;;;14.53;100.00;97486.84;5023892;28;20008;-79
2023/04/22 07:49:47;;;;;;;;;;;;;;;14.66;100.00;97485.25;5027228;28;19933;-79
2023/04/22 07:52:13;;;;;;;;;;;;;;;14.63;100.00;97483.97;5026491;28;19936;-79
2023/04/22 07:54:39;;;;;;;;;;;;;;;14.65;100.00;97476.38;5017858;28;20543;-79
2023/04/22 07:57:07;;;;;;;;;;;;;;;14.85;100.00;97480.56;5023162;28;19926;-79
2023/04/22 07:59:33;;;;;;;;;;;;;;;14.84;100.00;97474.38;5013639;28;19932;-80
2023/04/22 08:02:00;;;;;;;;;;;;;;;15.01;100.00;97474.53;5024255;28;19933;-79
2023/04/22 08:04:26;;;;;;;;;;;;;;;15.08;100.00;97469.56;5024817;28;19936;-79
2023/04/22 08:06:53;;;;;;;;;;;;;;;15.14;100.00;97475.63;5028709;28;20024;-80
2023/04/22 08:09:20;;;;;;;;;;;;;;;15.18;100.00;97478.50;5024335;28;19929;-79
2023/04/22 08:11:46;;;;;;;;;;;;;;;15.21;100.00;97469.81;5013568;28;19925;-80
2023/04/22 08:14:14;;;;;;;;;;;;;;;15.17;100.00;97468.84;5020787;28;19968;-79
2023/04/22 08:16:41;;;;;;;;;;;;;;;15.24;100.00;97463.84;5017249;28;20150;-81
2023/04/22 08:19:07;;;;;;;;;;;;;;;15.30;100.00;97459.94;5014072;28;20022;-80
2023/04/22 08:21:36;;;;;;;;;;;;;;;15.37;100.00;97466.50;5012282;28;20015;-79
2023/04/22 08:24:02;;;;;;;;;;;;;;;15.43;100.00;97467.16;5026880;28;19926;-80
2023/04/22 08:26:28;;;;;;;;;;;;;;;15.46;100.00;97461.97;5025106;28;20020;-81
2023/04/22 08:28:55;;;;;;;;;;;;;;;15.51;100.00;97480.72;5026992;28;20024;-80
2023/04/22 08:31:22;;;;;;;;;;;;;;;15.66;100.00;97474.19;5026655;28;20017;-80
2023/04/22 08:33:49;;;;;;;;;;;;;;;15.58;100.00;97475.72;5027071;28;20024;-79
2023/04/22 08:36:16;;;;;;;;;;;;;;;15.52;100.00;97476.94;5027634;28;20588;-80
2023/04/22 08:38:42;;;;;;;;;;;;;;;15.59;100.00;97473.81;5021210;28;20606;-80
2023/04/22 08:41:09;;;;;;;;;;;;;;;15.71;100.00;97479.47;5024288;28;20304;-80
2023/04/22 08:43:36;;;;;;;;;;;;;;;15.77;100.00;97480.91;5010908;28;19929;-79
2023/04/22 08:46:02;;;;;;;;;;;;;;;15.84;100.00;97489.38;5020207;28;19925;-80
2023/04/22 08:48:30;;;;;;;;;;;;;;;15.89;100.00;97481.16;4998453;28;20404;-80
2023/04/22 08:50:57;;;;;;;;;;;;;;;15.85;100.00;97484.75;5008810;28;19925;-79
2023/04/22 08:53:24;;;;;;;;;;;;;;;15.85;100.00;97477.47;5007493;28;19932;-80
2023/04/22 08:55:50;;;;;;;;;;;;;;;15.90;100.00;97465.81;5024026;28;20016;-80
2023/04/22 08:58:16;;;;;;;;;;;;;;;16.06;100.00;97469.69;5021892;28;20009;-80
2023/04/22 09:00:43;;;;;;;;;;;;;;;16.12;100.00;97463.84;5003945;28;20029;-79
2023/04/22 09:03:10;;;;;;;;;;;;;;;16.17;100.00;97471.81;5010870;28;19931;-80
2023/04/22 09:05:39;;;;;;;;;;;;;;;16.24;100.00;97468.69;5016097;28;20652;-81
2023/04/22 09:08:06;;;;;;;;;;;;;;;16.20;100.00;97470.41;5011333;28;19936;-80
2023/04/22 09:10:33;;;;;;;;;;;;;;;16.28;100.00;97460.78;5003358;28;20275;-80
2023/04/22 09:12:59;;;;;;;;;;;;;;;16.28;100.00;97461.56;5021753;28;20426;-79
2023/04/22 09:15:26;;;;;;;;;;;;;;;16.45;100.00;97458.94;5018847;28;20109;-79
2023/04/22 09:17:52;;;;;;;;;;;;;;;16.56;98.99;97456.78;5019454;28;19930;-80
2023/04/22 09:20:19;;;;;;;;;;;;;;;16.69;96.99;97456.66;5021378;28;19968;-80
2023/04/22 09:22:48;;;;;;;;;;;;;;;16.77;97.13;97463.22;5015631;28;19984;-80
2023/04/22 09:25:17;;;;;;;;;;;;;;;16.77;99.39;97443.53;5016303;28;19932;-80
2023/04/22 09:27:47;;;;;;;;;;;;;;;16.81;95.66;97442.56;5025823;28;20021;-80
2023/04/22 09:30:14;;;;;;;;;;;;;;;16.87;94.19;97448.59;5030544;28;19932;-80
2023/04/22 09:32:40;;;;;;;;;;;;;;;16.95;93.79;97443.25;5022806;28;19968;-79
2023/04/22 09:35:07;;;;;;;;;;;;;;;17.05;92.13;97448.31;5024925;28;19933;-80
2023/04/22 09:37:33;;;;;;;;;;;;;;;17.01;92.38;97449.28;5018195;28;19929;-79
2023/04/22 09:40:01;;;;;;;;;;;;;;;17.09;93.17;97452.00;5015281;28;19932;-80
2023/04/22 09:42:27;;;;;;;;;;;;;;;17.10;90.57;97455.50;5017213;28;19929;-80
2023/04/22 09:44:53;;;;;;;;;;;;;;;17.12;91.10;97458.66;5026581;28;19925;-79
2023/04/22 09:47:22;;;;;;;;;;;;;;;17.16;89.08;97449.63;5022138;28;19935;-80
2023/04/22 09:49:49;;;;;;;;;;;;;;;17.01;90.50;97452.78;5010199;28;19933;-80
2023/04/22 09:52:25;;;;;;;;;;;;;;;16.99;92.77;97441.50;5026425;28;19943;-80
2023/04/22 09:54:52;;;;;;;;;;;;;;;16.97;93.50;97456.41;5025554;28;20023;-79
2023/04/22 09:57:20;;;;;;;;;;;;;;;17.04;92.93;97446.75;5012705;28;19987;-80
2023/04/22 09:59:47;;;;;;;;;;;;;;;17.13;94.68;97444.06;5025545;28;19936;-79
2023/04/22 10:02:14;;;;;;;;;;;;;;;17.23;94.60;97451.84;5019644;28;19972;-78
2023/04/22 10:04:41;;;;;;;;;;;;;;;17.27;94.68;97440.09;5006436;28;19945;-81
2023/04/22 10:07:08;;;;;;;;;;;;;;;17.21;95.71;97440.56;5020422;28;19936;-80
2023/04/22 10:09:34;;;;;;;;;;;;;;;17.24;95.30;97442.63;5011297;28;20400;-80
2023/04/22 10:12:02;;;;;;;;;;;;;;;17.12;95.47;97432.47;5015679;28;19964;-79
2023/04/22 10:14:29;;;;;;;;;;;;;;;17.17;95.92;97424.25;5008508;28;19925;-82
2023/04/22 10:16:57;;;;;;;;;;;;;;;17.28;97.85;97430.09;4996612;28;20646;-80
2023/04/22 10:19:24;;;;;;;;;;;;;;;17.50;97.02;97427.25;5016806;28;19940;-80
2023/04/22 10:21:53;;;;;;;;;;;;;;;17.63;95.81;97422.81;5016357;28;19929;-80
2023/04/22 10:24:20;;;;;;;;;;;;;;;17.59;93.01;97424.56;5022219;28;19929;-79
2023/04/22 10:26:50;;;;;;;;;;;;;;;17.69;92.52;97419.63;5029179;28;19969;-82
2023/04/22 10:29:17;;;;;;;;;;;;;;;17.88;91.28;97421.19;5011456;28;20412;-80
2023/04/22 10:31:45;;;;;;;;;;;;;;;17.95;91.08;97416.84;5021002;28;19925;-80
2023/04/22 10:34:12;;;;;;;;;;;;;;;17.70;90.94;97407.69;5019761;28;20431;-80
2023/04/22 10:36:55;;;;;;;;;;;;;;;17.91;88.43;97415.94;5013200;28;20240;-80
2023/04/22 10:39:22;;;;;;;;;;;;;;;17.95;88.26;97408.75;5019238;28;20016;-80
2023/04/22 10:41:52;;;;;;;;;;;;;;;18.05;87.93;97399.50;5022090;28;20441;-80
2023/04/22 10:44:19;;;;;;;;;;;;;;;18.19;87.97;97400.91;5018399;28;20414;-80
2023/04/22 10:47:02;;;;;;;;;;;;;;;18.38;85.02;97399.69;5036516;28;19960;-80
2023/04/22 10:49:31;;;;;;;;;;;;;;;18.51;82.51;97398.69;5014711;28;20533;-79
2023/04/22 10:51:58;;;;;;;;;;;;;;;18.44;77.13;97398.41;5024892;28;19925;-82
2023/04/22 10:54:43;;;;;;;;;;;;;;;18.44;78.02;97396.50;5014307;28;20017;-80
2023/04/22 10:57:10;;;;;;;;;;;;;;;18.53;79.73;97393.75;5018130;28;19926;-81
2023/04/22 10:59:41;;;;;;;;;;;;;;;18.31;83.86;97392.09;5004183;28;20353;-80
2023/04/22 11:02:11;;;;;;;;;;;;;;;18.60;79.66;97399.47;5022157;28;19936;-81
2023/04/22 11:04:38;;;;;;;;;;;;;;;18.55;78.42;97391.53;5010924;28;19941;-80
2023/04/22 11:07:14;;;;;;;;;;;;;;;18.70;77.03;97399.06;5011708;28;20382;-80
2023/04/22 11:09:41;;;;;;;;;;;;;;;18.70;73.41;97399.84;5024255;28;19929;-82
2023/04/22 11:12:37;;;;;;;;;;;;;;;18.83;72.23;97382.59;5021260;28;19941;-81
2023/04/22 11:15:05;;;;;;;;;;;;;;;19.01;73.63;97388.66;5009123;28;19929;-80
2023/04/22 11:17:36;;;;;;;;;;;;;;;19.05;74.48;97378.78;5021595;28;20051;-81
2023/04/22 11:20:03;;;;;;;;;;;;;;;19.23;75.25;97392.97;5014331;28;19925;-80
2023/04/22 11:22:34;;;;;;;;;;;;;;;19.26;66.94;97389.59;5021211;28;20011;-80
2023/04/22 11:25:00;;;;;;;;;;;;;;;19.28;67.77;97392.78;5019601;28;20036;-80
2023/04/22 11:27:29;;;;;;;;;;;;;;;19.29;67.96;97381.59;5006983;28;19935;-79
2023/04/22 11:30:01;;;;;;;;;;;;;;;19.22;66.23;97375.91;5023334;28;19983;-80
2023/04/22 11:32:28;;;;;;;;;;;;;;;19.44;64.14;97369.38;5012763;28;20032;-78
2023/04/22 11:34:55;;;;;;;;;;;;;;;19.47;65.35;97384.97;5003592;28;20367;-79
2023/04/22 11:37:22;;;;;;;;;;;;;;;19.27;66.24;97374.94;5010814;28;20381;-79
2023/04/22 11:39:49;;;;;;;;;;;;;;;19.06;69.98;97369.53;4989147;28;20450;-79
2023/04/22 11:42:20;;;;;;;;;;;;;;;19.17;71.52;97356.38;4989724;28;19965;-78
2023/04/22 11:44:46;;;;;;;;;;;;;;;19.34;67.79;97357.03;5006051;28;20360;-80
2023/04/22 11:47:12;;;;;;;;;;;;;;;19.49;66.31;97362.97;5020939;28;19945;-79
2023/04/22 11:49:39;;;;;;;;;;;;;;;19.61;63.63;97349.47;5016180;28;20497;-79
2023/04/22 11:52:06;;;;;;;;;;;;;;;19.51;65.32;97358.81;5006769;28;20117;-79
2023/04/22 11:54:33;;;;;;;;;;;;;;;19.62;61.11;97351.06;5009944;28;20020;-80
2023/04/22 11:57:02;;;;;;;;;;;;;;;19.70;60.31;97336.63;5012264;28;19925;-78
2023/04/22 11:59:28;;;;;;;;;;;;;;;19.55;63.05;97340.78;5014998;28;19933;-79
2023/04/22 12:01:54;;;;;;;;;;;;;;;19.72;61.67;97350.63;5014793;28;19957;-80
2023/04/22 12:04:21;;;;;;;;;;;;;;;19.98;60.10;97348.41;5013339;28;19933;-79
2023/04/22 12:06:47;;;;;;;;;;;;;;;19.83;57.29;97338.25;5013185;28;19926;-79
2023/04/22 12:09:15;;;;;;;;;;;;;;;20.26;57.20;97338.53;5020864;28;20020;-79
2023/04/22 12:11:42;;;;;;;;;;;;;;;20.12;58.30;97340.75;5023971;28;20412;-80
2023/04/22 12:14:08;;;;;;;;;;;;;;;20.31;57.91;97337.50;5020980;28;20156;-79
2023/04/22 12:16:39;;;;;;;;;;;;;;;20.03;59.93;97337.34;5019907;28;19935;-79
2023/04/22 12:19:06;;;;;;;;;;;;;;;20.15;61.75;97334.66;5012738;28;20015;-79
2023/04/22 12:21:32;;;;;;;;;;;;;;;20.33;59.50;97340.69;5019676;28;20011;-79
2023/04/22 12:23:59;;;;;;;;;;;;;;;20.21;57.68;97341.41;5013021;28;20023;-79
2023/04/22 12:26:27;;;;;;;;;;;;;;;20.27;57.47;97340.09;5003595;28;19940;-79
2023/04/22 12:28:54;;;;;;;;;;;;;;;20.29;58.02;97343.28;5018190;28;19930;-77
2023/04/22 12:31:21;;;;;;;;;;;;;;;20.14;59.52;97338.50;5020335;28;19925;-77
2023/04/22 12:33:47;;;;;;;;;;;;;;;20.58;57.37;97341.44;5021193;28;19942;-79
2023/04/22 12:36:14;;;;;;;;;;;;;;;20.60;57.22;97339.97;5013659;28;19945;-79
2023/04/22 12:38:40;;;;;;;;;;;;;;;20.50;58.82;97334.22;5015999;28;19929;-78